Time;durP1;ratioP1;P1;durP2;ratioP2;P2;SDS_P1;SDS_P2;PMS_P1;PMS_P2;Temp;Humidity;BMP_temperature;BMP_pressure;BME280_temperature;BME280_humidity;BME280_pressure;Samples;Min_cycle;Max_cycle;Signal;HPM_P1;HPM_P2
2021/08/23 00:02:38;;;;;;;;;;;;;;;;;;;;;
2021/08/23 00:06:27;;;;;;;25.57;18.32;;;;;;;17.75;100.00;101190.69;1160369;120;21334;-86
2021/08/23 00:16:30;;;;;;;;;;;;;;;;;;;;;
2021/08/23 00:20:50;;;;;;;18.87;16.87;;;;;;;17.82;100.00;101197.52;1158029;122;21733;-85
2021/08/23 00:24:44;;;;;;;;;;;;;;;;;;;;;
2021/08/23 00:37:25;;;;;;;18.32;15.60;;;;;;;18.18;100.00;101195.41;1194445;118;21274;-85
2021/08/23 00:40:06;;;;;;;;;;;;;;;;;;;;;
2021/08/23 00:48:33;;;;;;;;;;;;;;;;;;;;;
2021/08/23 00:55:48;;;;;;;16.52;14.83;;;;;;;17.84;100.00;101203.44;1205947;115;21288;-85
2021/08/23 00:58:38;;;;;;;;;;;;;;;;;;;;;
2021/08/23 01:01:15;;;;;;;;;;;;;;;;;;;;;
2021/08/23 01:10:38;;;;;;;;;;;;;;;;;;;;;
2021/08/23 01:15:49;;;;;;;14.60;13.10;;;;;;;17.52;100.00;101206.55;1282597;110;21211;-85
2021/08/23 01:18:29;;;;;;;;;;;;;;;;;;;;;
2021/08/23 01:21:02;;;;;;;14.70;13.03;;;;;;;17.20;100.00;101216.52;1304707;109;21225;-85
2021/08/23 01:26:04;;;;;;;15.18;13.53;;;;;;;16.96;100.00;101215.70;1265088;112;21292;-85
2021/08/23 01:29:07;;;;;;;14.43;12.65;;;;;;;16.93;100.00;101219.92;1270352;112;21769;-85
2021/08/23 01:32:03;;;;;;;;;;;;;;;;;;;;;
2021/08/23 01:34:53;;;;;;;;;;;;;;;;;;;;;
2021/08/23 01:47:56;;;;;;;12.25;11.05;;;;;;;16.80;100.00;101213.16;1250620;113;21368;-85
2021/08/23 01:50:19;;;;;;;11.80;10.68;;;;;;;16.80;100.00;101205.73;1265635;111;21250;-84
2021/08/23 01:53:21;;;;;;;;;;;;;;;;;;;;;
2021/08/23 01:56:08;;;;;;;;;;;;;;;;;;;;;
2021/08/23 01:58:42;;;;;;;;;;;;;;;;;;;;;
2021/08/23 02:01:09;;;;;;;12.65;10.98;;;;;;;16.66;100.00;101207.03;1192915;117;21235;-85
2021/08/23 02:03:48;;;;;;;11.50;10.30;;;;;;;16.64;100.00;101201.08;1182181;119;22296;-85
2021/08/23 02:06:34;;;;;;;;;;;;;;;;;;;;;
2021/08/23 02:09:04;;;;;;;;;;;;;;;;;;;;;
2021/08/23 02:12:10;;;;;;;;;;;;;;;;;;;;;
2021/08/23 02:15:02;;;;;;;;;;;;;;;;;;;;;
2021/08/23 02:21:38;;;;;;;;;;;;;;;;;;;;;
2021/08/23 02:24:32;;;;;;;11.05;9.95;;;;;;;16.51;100.00;101213.19;1168116;120;21283;-86
2021/08/23 02:27:03;;;;;;;11.90;10.03;;;;;;;16.46;100.00;101210.16;1185911;117;21268;-85
2021/08/23 02:39:17;;;;;;;;;;;;;;;;;;;;;
2021/08/23 02:42:40;;;;;;;;;;;;;;;;;;;;;
2021/08/23 02:46:20;;;;;;;;;;;;;;;;;;;;;
2021/08/23 02:54:25;;;;;;;;;;;;;;;;;;;;;
2021/08/23 02:57:46;;;;;;;12.03;10.08;;;;;;;16.29;100.00;101211.20;1188910;117;21233;-86
2021/08/23 03:00:24;;;;;;;16.80;10.08;;;;;;;16.27;100.00;101214.45;1252146;113;22019;-85
2021/08/23 03:03:09;;;;;;;19.82;9.73;;;;;;;16.27;100.00;101217.08;1253352;113;21190;-85
2021/08/23 03:05:49;;;;;;;11.88;9.58;;;;;;;16.36;100.00;101217.56;1266368;111;22164;-85
2021/08/23 03:08:53;;;;;;;;;;;;;;;;;;;;;
2021/08/23 03:11:31;;;;;;;;;;;;;;;;;;;;;
2021/08/23 03:14:03;;;;;;;11.60;9.00;;;;;;;16.61;100.00;101226.32;1276542;109;21239;-88
2021/08/23 03:16:53;;;;;;;10.35;8.95;;;;;;;16.59;100.00;101228.25;1337265;106;21321;-86
2021/08/23 03:19:25;;;;;;;10.95;8.83;;;;;;;16.59;100.00;101231.73;1350785;103;21224;-85
2021/08/23 03:21:52;;;;;;;11.18;8.90;;;;;;;16.61;100.00;101229.80;1389684;103;21212;-85
2021/08/23 03:24:20;;;;;;;9.33;8.43;;;;;;;16.63;100.00;101231.77;1453030;96;21199;-84
2021/08/23 03:26:47;;;;;;;9.18;8.28;;;;;;;16.62;100.00;101230.61;1474242;95;21489;-85
2021/08/23 03:29:14;;;;;;;8.78;7.80;;;;;;;16.59;100.00;101228.25;1509103;93;21133;-85
2021/08/23 03:31:41;;;;;;;8.45;7.58;;;;;;;16.53;100.00;101234.92;1468541;96;21317;-85
2021/08/23 03:34:12;;;;;;;9.00;7.80;;;;;;;16.48;100.00;101238.43;1477629;96;21105;-85
2021/08/23 03:36:44;;;;;;;9.70;7.37;;;;;;;16.43;100.00;101234.08;1475009;94;21988;-86
2021/08/23 03:39:17;;;;;;;10.45;7.62;;;;;;;16.41;100.00;101232.92;1502990;93;21156;-86
2021/08/23 03:41:52;;;;;;;10.88;8.40;;;;;;;16.39;100.00;101235.66;1546684;89;21078;-86
2021/08/23 03:44:20;;;;;;;10.53;7.40;;;;;;;16.38;100.00;101241.88;1606962;87;21080;-84
2021/08/23 03:46:57;;;;;;;;;;;;;;;;;;;;;
2021/08/23 03:49:26;;;;;;;9.70;7.80;;;;;;;16.35;100.00;101242.18;1587760;88;21143;-86
2021/08/23 03:51:55;;;;;;;9.68;8.10;;;;;;;16.35;100.00;101242.18;1555509;88;21126;-89
2021/08/23 03:54:22;;;;;;;20.32;8.03;;;;;;;16.36;100.00;101239.05;1593426;89;21161;-86
2021/08/23 03:56:50;;;;;;;11.70;7.70;;;;;;;16.36;100.00;101244.31;1597469;88;21148;-85
2021/08/23 03:59:17;;;;;;;10.85;7.72;;;;;;;16.36;100.00;101240.37;1597290;87;21263;-84
2021/08/23 04:01:44;;;;;;;9.90;7.55;;;;;;;16.35;100.00;101241.33;1623243;86;21962;-85
2021/08/23 04:04:11;;;;;;;9.28;6.70;;;;;;;16.35;100.00;101246.13;1594905;88;21656;-84
2021/08/23 04:06:44;;;;;;;10.68;7.20;;;;;;;16.37;100.00;101249.91;1615466;87;21070;-83
2021/08/23 04:09:14;;;;;;;8.65;7.10;;;;;;;16.37;100.00;101248.60;1587905;87;21125;-84
2021/08/23 04:11:43;;;;;;;7.72;6.95;;;;;;;16.38;100.00;101248.45;1611396;87;21102;-84
2021/08/23 04:14:11;;;;;;;7.92;7.12;;;;;;;16.42;100.00;101252.13;1605598;87;21221;-85
2021/08/23 04:16:38;;;;;;;7.00;6.35;;;;;;;16.42;100.00;101249.50;1591888;87;21208;-84
2021/08/23 04:19:04;;;;;;;7.85;6.90;;;;;;;16.44;100.00;101248.39;1620533;87;21107;-84
2021/08/23 04:21:32;;;;;;;7.60;6.15;;;;;;;16.46;100.00;101253.03;1602071;87;21074;-85
2021/08/23 04:24:00;;;;;;;7.10;6.40;;;;;;;16.49;100.00;101250.61;1604023;87;21654;-86
2021/08/23 04:26:27;;;;;;;7.33;6.50;;;;;;;16.53;100.00;101250.70;1616398;85;21081;-84
2021/08/23 04:28:56;;;;;;;6.75;6.08;;;;;;;16.56;100.00;101253.02;1641079;85;21075;-86
2021/08/23 04:31:24;;;;;;;8.48;7.03;;;;;;;16.60;100.00;101250.95;1639900;86;21043;-85
2021/08/23 04:33:51;;;;;;;9.10;6.20;;;;;;;16.62;100.00;101245.07;1642254;85;21082;-84
2021/08/23 04:36:18;;;;;;;7.83;6.42;;;;;;;16.66;100.00;101251.73;1637538;86;21085;-85
2021/08/23 04:38:50;;;;;;;8.65;6.50;;;;;;;16.74;100.00;101253.64;1643301;85;21225;-87
2021/08/23 04:41:16;;;;;;;7.10;6.33;;;;;;;16.79;100.00;101255.35;1614010;86;21034;-84
2021/08/23 04:43:44;;;;;;;8.30;5.78;;;;;;;16.88;100.00;101255.83;1620876;84;21047;-85
2021/08/23 04:46:11;;;;;;;7.15;5.85;;;;;;;16.99;100.00;101260.97;1677924;84;21020;-84
2021/08/23 04:48:38;;;;;;;7.42;6.35;;;;;;;17.09;100.00;101257.49;1651196;85;21030;-82
2021/08/23 04:51:07;;;;;;;8.03;6.17;;;;;;;17.17;100.00;101259.74;1620687;85;21904;-84
2021/08/23 04:53:33;;;;;;;8.35;6.03;;;;;;;17.30;100.00;101255.48;1685319;82;21027;-84
2021/08/23 04:56:01;;;;;;;6.53;5.65;;;;;;;17.43;100.00;101263.05;1667715;83;21015;-84
2021/08/23 04:58:31;;;;;;;7.00;5.90;;;;;;;17.53;100.00;101260.37;1690026;82;21229;-84
2021/08/23 05:00:58;;;;;;;6.83;5.42;;;;;;;17.60;100.00;101256.18;1664004;83;21651;-83
2021/08/23 05:03:25;;;;;;;7.60;5.50;;;;;;;17.66;100.00;101254.30;1677241;83;21766;-83
2021/08/23 05:05:53;;;;;;;7.70;5.72;;;;;;;17.72;100.00;101259.95;1697897;83;21177;-85
2021/08/23 05:08:20;;;;;;;7.10;5.50;;;;;;;17.78;100.00;101256.72;1665091;83;21072;-83
2021/08/23 05:10:49;;;;;;;9.33;5.40;;;;;;;17.82;100.00;101250.20;1664581;83;21070;-84
2021/08/23 05:13:16;;;;;;;5.58;4.65;;;;;;;17.87;100.00;101251.89;1689455;83;21069;-83
2021/08/23 05:15:43;;;;;;;8.60;5.42;;;;;;;17.94;100.00;101252.95;1664818;83;21087;-84
2021/08/23 05:18:10;;;;;;;7.08;5.25;;;;;;;18.00;100.00;101237.55;1675265;82;21609;-84
2021/08/23 05:20:37;;;;;;;7.25;5.05;;;;;;;18.07;100.00;101242.56;1673267;83;21730;-84
2021/08/23 05:23:04;;;;;;;7.67;4.85;;;;;;;18.14;100.00;101238.38;1670152;83;21784;-83
2021/08/23 05:25:34;;;;;;;10.13;5.00;;;;;;;18.20;100.00;101240.87;1663270;84;21218;-83
2021/08/23 05:28:02;;;;;;;6.30;4.72;;;;;;;18.24;100.00;101240.42;1674329;83;21116;-82
2021/08/23 05:30:32;;;;;;;7.72;5.15;;;;;;;18.33;100.00;101242.66;1693553;84;21369;-83
2021/08/23 05:33:00;;;;;;;8.03;5.17;;;;;;;18.40;100.00;101244.19;1690135;83;21072;-83
2021/08/23 05:35:27;;;;;;;6.42;4.83;;;;;;;18.46;100.00;101243.60;1669333;83;21156;-83
2021/08/23 05:37:54;;;;;;;5.90;4.70;;;;;;;18.52;100.00;101244.30;1661847;83;21422;-84
2021/08/23 05:40:26;;;;;;;7.67;4.90;;;;;;;18.59;100.00;101248.45;1677614;83;21163;-83
2021/08/23 05:42:53;;;;;;;6.72;5.30;;;;;;;18.66;100.00;101242.94;1681916;83;21101;-83
2021/08/23 05:45:20;;;;;;;8.18;4.70;;;;;;;18.75;100.00;101243.81;1671420;83;21109;-84
2021/08/23 05:47:47;;;;;;;7.97;4.83;;;;;;;18.82;100.00;101248.81;1689598;82;21109;-84
2021/08/23 05:50:14;;;;;;;5.67;4.17;;;;;;;18.92;100.00;101252.69;1681336;83;21560;-83
2021/08/23 05:52:41;;;;;;;5.58;4.58;;;;;;;19.03;100.00;101251.59;1656864;84;21289;-84
2021/08/23 05:55:09;;;;;;;5.83;4.35;;;;;;;19.13;100.00;101253.64;1678303;83;21077;-83
2021/08/23 05:57:36;;;;;;;5.90;4.20;;;;;;;19.22;100.00;101248.75;1677706;83;21060;-83
2021/08/23 06:00:09;;;;;;;5.15;4.28;;;;;;;19.33;100.00;101250.80;1679827;83;21019;-84
2021/08/23 06:02:37;;;;;;;6.22;4.50;;;;;;;19.42;100.00;101251.17;1660718;83;21599;-83
2021/08/23 06:05:05;;;;;;;8.83;4.60;;;;;;;19.52;100.00;101246.57;1679562;82;21136;-83
2021/08/23 06:07:32;;;;;;;6.47;4.33;;;;;;;19.61;100.00;101247.45;1668365;83;21034;-84
2021/08/23 06:09:59;;;;;;;7.10;4.40;;;;;;;19.69;100.00;101243.52;1672935;83;21093;-85
2021/08/23 06:12:27;;;;;;;6.47;4.65;;;;;;;19.79;100.00;101240.73;1684133;83;21085;-83
2021/08/23 06:14:54;;;;;;;6.97;4.17;;;;;;;19.88;100.00;101247.39;1657131;84;21608;-84
2021/08/23 06:17:21;;;;;;;6.22;4.58;;;;;;;19.97;100.00;101246.42;1653432;84;21171;-84
2021/08/23 06:19:48;;;;;;;9.65;4.72;;;;;;;20.05;100.00;101245.12;1658227;84;21100;-85
2021/08/23 06:22:15;;;;;;;9.30;4.58;;;;;;;20.14;100.00;101239.34;1680917;83;21603;-83
2021/08/23 06:24:42;;;;;;;5.90;4.03;;;;;;;20.24;100.00;101243.98;1675563;83;21337;-83
2021/08/23 06:27:10;;;;;;;9.13;4.65;;;;;;;20.35;100.00;101245.98;1672174;83;21228;-83
2021/08/23 06:29:37;;;;;;;7.87;4.97;;;;;;;20.44;100.00;101248.45;1705669;81;22229;-84
2021/08/23 06:32:04;;;;;;;7.22;4.60;;;;;;;20.55;100.00;101251.77;1668622;85;21062;-84
2021/08/23 06:34:32;;;;;;;8.00;4.80;;;;;;;20.64;100.00;101249.42;1663421;83;21069;-83
2021/08/23 06:36:59;;;;;;;11.08;4.05;;;;;;;20.75;100.00;101248.32;1669671;83;20998;-83
2021/08/23 06:39:27;;;;;;;12.03;4.58;;;;;;;20.85;100.00;101248.13;1670757;84;21112;-83
2021/08/23 06:41:54;;;;;;;8.85;4.90;;;;;;;20.95;100.00;101252.24;1655924;83;21619;-84
2021/08/23 06:44:21;;;;;;;7.00;3.87;;;;;;;21.03;100.00;101252.70;1654515;84;21572;-84
2021/08/23 06:46:52;;;;;;;9.40;4.37;;;;;;;21.12;100.00;101257.50;1684601;84;21057;-84
2021/08/23 06:49:20;;;;;;;10.75;3.87;;;;;;;21.21;100.00;101254.32;1671980;83;21146;-84
2021/08/23 06:51:48;;;;;;;7.60;4.22;;;;;;;21.31;100.00;101252.31;1642519;84;21049;-84
2021/08/23 06:54:15;;;;;;;8.83;3.65;;;;;;;21.42;100.00;101257.73;1630821;85;21119;-83
2021/08/23 06:56:42;;;;;;;6.72;4.10;;;;;;;21.52;100.00;101257.03;1652869;84;21124;-83
2021/08/23 06:59:10;;;;;;;5.28;3.10;;;;;;;21.63;100.00;101257.18;1632805;85;21117;-85
2021/08/23 07:01:38;;;;;;;5.85;3.33;;;;;;;21.77;100.00;101264.06;1629777;86;21040;-83
2021/08/23 07:04:08;;;;;;;5.47;3.58;;;;;;;21.88;100.00;101257.87;1652537;84;21143;-84
2021/08/23 07:06:35;;;;;;;4.25;3.20;;;;;;;22.01;100.00;101259.95;1611605;85;21190;-85
2021/08/23 07:09:04;;;;;;;4.35;2.98;;;;;;;22.12;100.00;101264.53;1663022;84;21093;-85
2021/08/23 07:11:31;;;;;;;3.52;3.15;;;;;;;22.21;100.00;101258.98;1674797;83;21502;-84
2021/08/23 07:13:59;;;;;;;3.87;3.20;;;;;;;22.32;100.00;101260.39;1692385;83;21039;-84
2021/08/23 07:16:26;;;;;;;4.53;2.77;;;;;;;22.42;100.00;101256.70;1679125;83;21046;-86
2021/08/23 07:18:54;;;;;;;3.85;3.22;;;;;;;22.49;100.00;101259.81;1689047;83;21141;-87
2021/08/23 07:21:21;;;;;;;4.53;2.90;;;;;;;22.58;100.00;101257.09;1676226;84;21122;-84
2021/08/23 07:23:50;;;;;;;5.35;3.02;;;;;;;22.65;100.00;101260.16;1678257;84;21062;-86
2021/08/23 07:26:17;;;;;;;3.70;2.80;;;;;;;22.75;97.07;101249.79;1679708;84;21014;-84
2021/08/23 07:28:44;;;;;;;2.60;2.37;;;;;;;22.83;92.61;101247.06;1672653;83;21104;-84
2021/08/23 07:31:11;;;;;;;3.47;2.92;;;;;;;22.92;90.50;101238.48;1668586;83;21274;-85
2021/08/23 07:33:38;;;;;;;3.02;2.72;;;;;;;23.02;97.46;101243.55;1654837;84;21157;-86
2021/08/23 07:36:05;;;;;;;3.27;2.45;;;;;;;23.14;88.67;101246.06;1656054;85;21033;-86
2021/08/23 07:38:32;;;;;;;4.03;2.85;;;;;;;23.24;82.48;101247.13;1629889;86;21107;-86
2021/08/23 07:41:01;;;;;;;6.30;2.80;;;;;;;23.33;74.36;101250.53;1675867;83;21109;-86
2021/08/23 07:43:28;;;;;;;4.55;2.80;;;;;;;23.36;68.95;101246.16;1683159;83;21173;-86
2021/08/23 07:45:55;;;;;;;3.67;2.92;;;;;;;23.36;72.66;101247.00;1673991;83;21040;-86
2021/08/23 07:48:22;;;;;;;3.17;2.60;;;;;;;23.38;71.44;101246.81;1688243;84;20984;-86
2021/08/23 07:50:50;;;;;;;3.40;2.80;;;;;;;23.41;71.77;101251.77;1678750;83;21514;-84
2021/08/23 07:53:17;;;;;;;3.00;2.52;;;;;;;23.49;72.39;101254.32;1674575;83;20960;-87
2021/08/23 07:55:44;;;;;;;2.98;2.67;;;;;;;23.58;61.61;101250.55;1638785;83;21155;-86
2021/08/23 07:58:11;;;;;;;3.08;2.25;;;;;;;23.71;63.16;101243.24;1680270;83;21621;-86
2021/08/23 08:00:38;;;;;;;5.83;2.40;;;;;;;23.85;60.61;101253.50;1673257;83;21073;-85
2021/08/23 08:03:05;;;;;;;3.02;2.50;;;;;;;23.99;59.44;101245.70;1686095;83;21113;-84
2021/08/23 08:05:37;;;;;;;2.58;2.35;;;;;;;24.06;60.45;101240.75;1667534;83;20955;-87
2021/08/23 08:08:08;;;;;;;4.00;2.42;;;;;;;24.08;60.93;101242.73;1702279;83;21138;-87
2021/08/23 08:10:36;;;;;;;2.70;2.12;;;;;;;24.08;63.58;101238.73;1711066;83;21015;-84
2021/08/23 08:13:04;;;;;;;2.77;2.42;;;;;;;24.13;62.00;101239.50;1665092;83;21054;-84
2021/08/23 08:15:31;;;;;;;2.33;2.12;;;;;;;24.19;58.69;101235.27;1657705;83;21675;-84
2021/08/23 08:17:58;;;;;;;4.08;2.62;;;;;;;24.24;57.74;101232.31;1669227;83;21100;-85
2021/08/23 08:20:25;;;;;;;2.90;2.25;;;;;;;24.33;57.59;101234.84;1659642;83;21121;-86
2021/08/23 08:22:52;;;;;;;3.67;2.40;;;;;;;24.38;50.53;101232.45;1681129;83;21179;-88
2021/08/23 08:25:20;;;;;;;2.58;2.20;;;;;;;24.38;49.11;101232.45;1680889;83;21065;-88
2021/08/23 08:27:48;;;;;;;4.25;2.50;;;;;;;24.37;51.54;101232.13;1650687;83;21050;-87
2021/08/23 08:30:17;;;;;;;3.27;2.60;;;;;;;24.33;50.52;101236.17;1677620;83;21533;-85
2021/08/23 08:32:48;;;;;;;7.67;2.95;;;;;;;24.33;52.90;101237.51;1662147;82;21536;-86
2021/08/23 08:35:17;;;;;;;3.57;2.17;;;;;;;24.34;52.03;101233.34;1647313;83;21531;-85
2021/08/23 08:37:57;;;;;;;;;;;;;;;;;;;;;
2021/08/23 08:40:23;;;;;;;3.55;2.65;;;;;;;24.53;55.82;101233.19;1649322;84;21165;-85
2021/08/23 08:42:51;;;;;;;6.35;2.50;;;;;;;24.65;54.24;101233.97;1668302;83;21435;-89
2021/08/23 08:45:20;;;;;;;3.50;2.47;;;;;;;24.70;51.98;101233.73;1656365;83;21357;-89
2021/08/23 08:47:50;;;;;;;2.93;2.30;;;;;;;24.79;52.47;101226.94;1674342;83;21202;-92
2021/08/23 08:50:23;;;;;;;2.75;2.47;;;;;;;24.87;51.64;101231.61;1663969;83;21032;-88
2021/08/23 08:52:50;;;;;;;4.67;2.40;;;;;;;24.93;50.57;101229.98;1647103;84;21427;-88
2021/08/23 08:55:17;;;;;;;5.03;2.12;;;;;;;25.00;51.01;101229.51;1658705;83;21508;-88
2021/08/23 08:57:45;;;;;;;3.75;2.70;;;;;;;25.10;50.12;101225.18;1683748;83;21628;-88
2021/08/23 09:00:13;;;;;;;4.65;2.33;;;;;;;25.16;49.12;101224.38;1686413;83;21067;-88
2021/08/23 09:02:55;;;;;;;4.53;2.50;;;;;;;25.23;49.08;101219.59;1659386;83;21559;-86
2021/08/23 09:05:26;;;;;;;5.58;2.08;;;;;;;25.28;48.21;101233.16;1692448;83;21100;-87
2021/08/23 09:07:52;;;;;;;3.12;2.40;;;;;;;25.30;46.09;101230.60;1685568;83;21071;-87
2021/08/23 09:10:23;;;;;;;3.75;2.52;;;;;;;25.34;46.31;101221.70;1673070;83;21855;-87
2021/08/23 09:13:07;;;;;;;2.92;2.60;;;;;;;25.39;50.01;101228.61;1664643;83;21095;-89
2021/08/23 09:15:36;;;;;;;4.12;2.50;;;;;;;25.45;50.22;101221.14;1633739;84;21657;-89
2021/08/23 09:18:08;;;;;;;4.35;2.15;;;;;;;25.53;48.28;101210.82;1659983;84;21208;-90
2021/08/23 09:20:37;;;;;;;2.62;2.30;;;;;;;25.63;47.60;101214.43;1664467;83;21036;-91
2021/08/23 09:23:14;;;;;;;3.00;2.58;;;;;;;25.63;47.64;101207.77;1639084;85;21092;-90
2021/08/23 09:25:44;;;;;;;2.33;2.12;;;;;;;25.59;46.64;101215.34;1635106;85;21130;-88
2021/08/23 09:28:12;;;;;;;4.08;2.20;;;;;;;25.62;46.50;101215.45;1651566;84;21750;-89
2021/08/23 09:30:42;;;;;;;3.87;2.27;;;;;;;25.65;42.89;101217.20;1653572;85;21102;-92
2021/08/23 09:33:10;;;;;;;2.37;2.17;;;;;;;25.61;42.55;101211.13;1652006;84;21019;-89
2021/08/23 09:35:51;;;;;;;2.25;2.05;;;;;;;25.59;45.09;101210.53;1632548;85;21360;-87
2021/08/23 09:38:17;;;;;;;2.35;2.10;;;;;;;25.65;45.92;101215.06;1629602;85;21037;-90
2021/08/23 09:40:47;;;;;;;2.98;2.25;;;;;;;25.73;45.31;101209.54;1651464;85;21042;-88
2021/08/23 09:43:16;;;;;;;4.28;2.00;;;;;;;25.72;43.45;101211.08;1647893;85;21624;-88
2021/08/23 09:45:50;;;;;;;3.37;2.67;;;;;;;25.65;43.97;101209.20;1610945;85;21619;-88
2021/08/23 09:48:18;;;;;;;2.45;2.25;;;;;;;25.65;44.74;101212.39;1629856;85;21124;-88
2021/08/23 09:50:51;;;;;;;3.40;2.33;;;;;;;25.70;45.02;101213.93;1631356;85;20980;-90
2021/08/23 09:53:29;;;;;;;2.40;2.20;;;;;;;25.67;43.77;101217.83;1628580;85;21071;-86
2021/08/23 09:56:14;;;;;;;;;;;;;;;;;;;;;
2021/08/23 09:58:31;;;;;;;2.90;2.27;;;;;;;25.67;44.65;101222.35;1662742;83;21518;-86
2021/08/23 10:00:58;;;;;;;3.30;2.42;;;;;;;25.68;46.05;101221.30;1644956;85;21458;-89
2021/08/23 10:03:29;;;;;;;2.60;2.22;;;;;;;25.63;44.51;101215.77;1650195;84;21030;-88
2021/08/23 10:05:59;;;;;;;3.25;2.30;;;;;;;25.57;45.65;101215.24;1665150;84;20975;-83
2021/08/23 10:08:31;;;;;;;3.87;2.60;;;;;;;25.54;43.91;101218.30;1676701;84;21152;-86
2021/08/23 10:11:10;;;;;;;;;;;;;;;;;;;;;
2021/08/23 10:13:32;;;;;;;2.92;2.15;;;;;;;25.66;43.20;101202.05;1673156;83;21003;-87
2021/08/23 10:15:59;;;;;;;2.45;2.25;;;;;;;25.68;43.50;101209.30;1651826;84;21500;-89
2021/08/23 10:18:38;;;;;;;3.42;2.55;;;;;;;25.71;43.05;101207.58;1650871;84;21141;-89
2021/08/23 10:21:01;;;;;;;2.60;2.40;;;;;;;25.78;42.96;101212.94;1599548;86;21533;-88
2021/08/23 10:23:34;;;;;;;2.77;2.50;;;;;;;25.85;43.30;101207.59;1671851;84;21074;-90
2021/08/23 10:26:09;;;;;;;2.67;2.45;;;;;;;25.92;42.65;101205.26;1677899;84;21050;-92
2021/08/23 10:28:40;;;;;;;2.50;2.30;;;;;;;26.03;44.79;101197.69;1573585;90;21167;-89
2021/08/23 10:31:10;;;;;;;3.27;2.50;;;;;;;26.18;45.05;101201.50;1627025;84;21011;-86
2021/08/23 10:33:42;;;;;;;2.40;2.20;;;;;;;26.32;43.18;101195.12;1639737;85;21486;-91
2021/08/23 10:36:12;;;;;;;3.85;2.35;;;;;;;26.44;43.49;101198.02;1654458;84;27049;-85
2021/08/23 10:38:41;;;;;;;5.08;2.50;;;;;;;26.50;43.29;101201.20;1692287;83;21802;-86
2021/08/23 10:41:26;;;;;;;4.67;2.42;;;;;;;26.54;41.12;101198.93;1660498;82;21169;-84
2021/08/23 10:43:57;;;;;;;2.80;2.60;;;;;;;26.52;43.40;101199.64;1642856;84;21133;-85
2021/08/23 10:46:30;;;;;;;;;;;;;;;26.54;42.53;101196.26;1692064;84;21051;-86
2021/08/23 10:49:05;;;;;;;2.70;2.50;;;;;;;26.57;41.18;101191.81;1676174;84;20198;-86
2021/08/23 10:51:38;;;;;;;3.08;2.75;;;;;;;26.58;41.67;101192.97;1644636;84;21950;-86
2021/08/23 10:54:27;;;;;;;3.45;2.52;;;;;;;26.60;41.12;101192.22;1683281;83;21038;-86
2021/08/23 10:57:05;;;;;;;3.35;2.62;;;;;;;26.61;41.38;101187.19;1674443;84;21138;-86
2021/08/23 10:59:55;;;;;;;4.75;2.62;;;;;;;26.56;40.44;101180.86;1677997;84;21157;-85
2021/08/23 11:02:35;;;;;;;3.45;2.08;;;;;;;26.59;41.28;101180.42;1660672;84;22116;-86
2021/08/23 11:05:16;;;;;;;2.55;2.22;;;;;;;26.66;40.52;101178.55;1673747;83;21101;-85
2021/08/23 11:07:47;;;;;;;6.92;2.50;;;;;;;26.72;42.66;101172.37;1657381;83;21160;-86
2021/08/23 11:10:20;;;;;;;;;;;;;;;26.87;43.34;101174.03;1692666;82;21066;-86
2021/08/23 11:13:17;;;;;;;4.17;2.60;;;;;;;27.02;40.01;101173.75;1654800;84;20476;-85
2021/08/23 11:15:46;;;;;;;2.62;2.25;;;;;;;27.08;39.65;101172.40;1686504;82;21067;-86
2021/08/23 11:18:16;;;;;;;4.42;2.62;;;;;;;27.14;43.56;101164.05;1673098;83;21172;-85
2021/08/23 11:20:51;;;;;;;3.27;2.73;;;;;;;27.22;43.93;101164.31;1672353;83;21584;-85
2021/08/23 11:23:25;;;;;;;6.22;2.90;;;;;;;27.34;43.38;101158.61;1637939;86;21545;-86
2021/08/23 11:26:01;;;;;;;3.30;3.00;;;;;;;27.45;41.05;101165.16;1598276;86;37711;-86
2021/08/23 11:28:30;;;;;;;3.05;2.70;;;;;;;27.51;40.10;101155.46;1661730;84;21105;-86
2021/08/23 11:31:02;;;;;;;2.80;2.60;;;;;;;27.59;40.01;101155.20;1665498;84;21258;-85
2021/08/23 11:33:40;;;;;;;2.55;2.15;;;;;;;27.64;40.51;101162.05;1636993;86;21086;-85
2021/08/23 11:36:17;;;;;;;4.28;2.80;;;;;;;27.69;40.92;101160.88;1667248;84;21489;-86
2021/08/23 11:38:45;;;;;;;2.50;2.30;;;;;;;27.65;39.72;101154.33;1613425;84;21117;-85
2021/08/23 11:41:13;;;;;;;4.25;2.80;;;;;;;27.54;39.98;101150.50;1661759;84;21089;-85
2021/08/23 11:43:41;;;;;;;4.20;2.20;;;;;;;27.35;40.87;101160.75;1664700;84;21985;-85
2021/08/23 11:46:09;;;;;;;2.92;2.62;;;;;;;27.16;41.65;101157.95;1664949;84;21565;-85
2021/08/23 11:48:37;;;;;;;2.67;2.47;;;;;;;27.02;42.39;101162.56;1636694;86;21046;-86
2021/08/23 11:51:05;;;;;;;3.00;2.58;;;;;;;26.90;40.42;101158.39;1665080;84;21343;-85
2021/08/23 11:53:32;;;;;;;2.87;2.50;;;;;;;26.90;42.28;101161.07;1637520;86;21098;-86
2021/08/23 11:56:05;;;;;;;4.17;2.60;;;;;;;26.92;38.54;101164.86;1667356;84;21165;-86
2021/08/23 11:58:38;;;;;;;3.22;2.92;;;;;;;26.93;41.20;101162.49;1662663;84;21077;-85
2021/08/23 12:01:08;;;;;;;3.30;2.58;;;;;;;26.94;41.74;101162.80;1665622;84;21042;-85
2021/08/23 12:03:37;;;;;;;4.50;2.80;;;;;;;26.96;39.67;101162.05;1637622;86;21208;-85
2021/08/23 12:06:11;;;;;;;2.60;2.40;;;;;;;26.97;39.52;101160.22;1670800;84;21043;-86
2021/08/23 12:08:42;;;;;;;2.47;2.27;;;;;;;27.02;38.62;101155.05;1676806;84;21011;-85
2021/08/23 12:11:18;;;;;;;5.47;2.90;;;;;;;27.03;39.53;101150.84;1663535;84;21074;-85
2021/08/23 12:13:49;;;;;;;3.00;2.70;;;;;;;26.98;41.10;101158.66;1678879;84;21054;-85
2021/08/23 12:16:32;;;;;;;3.47;2.72;;;;;;;26.91;39.70;101155.20;1659668;85;21023;-85
2021/08/23 12:19:09;;;;;;;4.70;3.10;;;;;;;26.90;39.13;101157.06;1599173;85;21467;-85
2021/08/23 12:21:39;;;;;;;4.25;2.62;;;;;;;27.00;39.15;101160.61;1632604;85;21468;-85
2021/08/23 12:24:21;;;;;;;2.72;2.52;;;;;;;27.05;39.63;101158.64;1644485;85;21556;-86
2021/08/23 12:26:59;;;;;;;2.80;2.60;;;;;;;27.04;41.55;101161.00;1659360;85;21019;-86
2021/08/23 12:29:37;;;;;;;4.25;3.00;;;;;;;26.98;40.19;101166.67;1638243;85;21074;-85
2021/08/23 12:32:11;;;;;;;3.10;2.80;;;;;;;26.86;41.37;101161.70;1687498;81;21054;-85
2021/08/23 12:34:51;;;;;;;3.20;2.70;;;;;;;26.71;42.01;101170.76;1677959;83;21604;-85
2021/08/23 12:37:20;;;;;;;2.80;2.60;;;;;;;26.54;39.72;101170.36;1649756;85;21142;-85
2021/08/23 12:39:50;;;;;;;2.70;2.50;;;;;;;26.47;41.24;101174.09;1642037;86;21049;-85
2021/08/23 12:42:22;;;;;;;3.45;3.15;;;;;;;26.42;41.87;101171.52;1656930;84;21923;-85
2021/08/23 12:44:51;;;;;;;5.15;2.90;;;;;;;26.38;39.28;101168.97;1647987;85;21658;-85
2021/08/23 12:47:18;;;;;;;3.90;2.80;;;;;;;26.40;39.76;101175.42;1654045;85;21090;-85
2021/08/23 12:49:47;;;;;;;4.85;2.55;;;;;;;26.42;39.01;101174.19;1667986;83;21124;-86
2021/08/23 12:52:14;;;;;;;3.80;2.15;;;;;;;26.48;39.71;101168.53;1667194;82;21069;-85
2021/08/23 12:54:40;;;;;;;2.90;2.40;;;;;;;26.49;39.25;101170.18;1690912;83;21062;-85
2021/08/23 12:57:08;;;;;;;2.62;2.40;;;;;;;26.42;39.86;101168.03;1679455;83;22559;-85
2021/08/23 12:59:35;;;;;;;3.83;2.55;;;;;;;26.32;39.46;101172.97;1684570;83;21161;-86
2021/08/23 13:02:02;;;;;;;3.22;2.72;;;;;;;26.21;40.38;101167.75;1679543;84;21085;-86
2021/08/23 13:04:29;;;;;;;2.75;2.55;;;;;;;26.19;40.93;101173.80;1687921;83;20986;-85
2021/08/23 13:06:56;;;;;;;3.60;2.50;;;;;;;26.23;39.57;101175.04;1693823;83;21133;-85
2021/08/23 13:09:23;;;;;;;4.90;2.20;;;;;;;26.23;39.97;101168.37;1673715;83;21572;-86
2021/08/23 13:11:50;;;;;;;2.25;2.05;;;;;;;26.15;39.75;101168.05;1689366;83;21064;-85
2021/08/23 13:14:17;;;;;;;3.33;2.37;;;;;;;26.09;40.92;101156.87;1692344;83;21053;-86
2021/08/23 13:16:44;;;;;;;5.70;2.62;;;;;;;26.07;38.67;101148.21;1673396;82;21033;-85
2021/08/23 13:19:11;;;;;;;4.33;3.12;;;;;;;26.06;38.68;101147.90;1693604;82;21056;-86
2021/08/23 13:21:38;;;;;;;4.00;2.67;;;;;;;26.12;39.27;101147.10;1684997;83;22336;-85
2021/08/23 13:24:05;;;;;;;4.15;2.70;;;;;;;26.20;40.97;101140.75;1694198;83;21144;-86
2021/08/23 13:26:32;;;;;;;3.25;2.60;;;;;;;26.20;37.22;101136.74;1693895;83;21089;-85
2021/08/23 13:28:59;;;;;;;3.85;2.58;;;;;;;26.18;38.64;101135.63;1675823;84;21690;-85
2021/08/23 13:31:26;;;;;;;4.83;2.83;;;;;;;26.17;37.83;101144.66;1701876;83;21055;-87
2021/08/23 13:33:53;;;;;;;3.47;2.70;;;;;;;26.17;39.71;101149.16;1675983;83;21173;-84